Time;durP1;ratioP1;P1;durP2;ratioP2;P2;SDS_P1;SDS_P2;PMS_P1;PMS_P2;Temp;Humidity;BMP_temperature;BMP_pressure;BME280_temperature;BME280_humidity;BME280_pressure;Samples;Min_cycle;Max_cycle;Signal;HPM_P1;HPM_P2
2023/05/25 00:00:32;;;;;;;11.10;6.30;;;14.70;40.30;;;;;;4994999;28;20171;-56
2023/05/25 00:02:58;;;;;;;7.10;5.60;;;14.60;40.00;;;;;;4995498;28;20246;-55
2023/05/25 00:05:26;;;;;;;11.90;6.77;;;14.60;39.90;;;;;;4995130;28;20588;-55
2023/05/25 00:07:53;;;;;;;9.32;6.72;;;14.50;39.90;;;;;;4995181;28;20206;-55
2023/05/25 00:10:20;;;;;;;9.13;6.57;;;14.50;40.20;;;;;;4994815;28;20179;-55
2023/05/25 00:12:47;;;;;;;8.45;6.10;;;14.50;40.40;;;;;;4994909;28;20219;-55
2023/05/25 00:15:13;;;;;;;9.60;5.73;;;14.50;41.40;;;;;;4995123;28;20282;-54
2023/05/25 00:17:39;;;;;;;9.90;6.90;;;14.50;40.80;;;;;;4994933;28;20172;-55
2023/05/25 00:20:08;;;;;;;10.68;7.30;;;14.50;40.80;;;;;;4994660;28;20175;-54
2023/05/25 00:22:37;;;;;;;7.07;5.57;;;14.50;40.80;;;;;;4994875;28;20553;-55
2023/05/25 00:25:04;;;;;;;10.07;7.78;;;14.40;40.90;;;;;;4994867;28;20206;-55
2023/05/25 00:27:30;;;;;;;8.15;6.53;;;14.40;41.70;;;;;;4994731;28;20738;-54
2023/05/25 00:29:56;;;;;;;7.50;6.25;;;14.40;40.90;;;;;;4994454;28;20664;-54
2023/05/25 00:32:22;;;;;;;9.75;6.38;;;14.40;40.80;;;;;;4994602;28;20180;-55
2023/05/25 00:34:48;;;;;;;9.93;6.27;;;14.40;41.00;;;;;;4994487;28;20205;-54
2023/05/25 00:37:14;;;;;;;9.50;6.47;;;14.40;40.90;;;;;;4994614;28;20980;-55
2023/05/25 00:39:40;;;;;;;10.90;6.35;;;14.40;41.10;;;;;;4994207;28;20460;-55
2023/05/25 00:42:06;;;;;;;9.48;7.10;;;14.40;41.10;;;;;;4994602;28;20176;-55
2023/05/25 00:44:35;;;;;;;16.25;7.00;;;14.40;41.20;;;;;;4994388;28;20194;-54
2023/05/25 00:47:03;;;;;;;12.23;7.05;;;14.40;41.20;;;;;;4994378;28;20183;-56
2023/05/25 00:49:32;;;;;;;11.07;6.80;;;14.40;41.10;;;;;;4994405;28;20558;-55
2023/05/25 00:51:58;;;;;;;8.25;5.63;;;14.40;41.10;;;;;;4994243;28;20254;-54
2023/05/25 00:54:24;;;;;;;6.90;5.50;;;14.40;41.00;;;;;;4994223;28;20338;-55
2023/05/25 00:57:02;;;;;;;8.47;6.20;;;14.40;41.10;;;;;;4994163;28;20431;-56
2023/05/25 00:59:40;;;;;;;8.90;5.88;;;14.30;41.20;;;;;;4993935;28;20805;-54
2023/05/25 01:02:09;;;;;;;8.18;6.05;;;14.30;41.30;;;;;;4994202;28;20168;-56
2023/05/25 01:04:38;;;;;;;8.48;6.55;;;14.20;41.60;;;;;;4993856;28;20183;-55
2023/05/25 01:07:05;;;;;;;7.60;5.80;;;14.10;41.50;;;;;;4994310;28;20598;-56
2023/05/25 01:09:34;;;;;;;11.50;7.00;;;14.10;41.60;;;;;;4993611;28;20266;-56
2023/05/25 01:12:01;;;;;;;17.05;7.03;;;14.10;41.70;;;;;;4994035;28;20673;-56
2023/05/25 01:14:27;;;;;;;9.30;6.57;;;14.00;41.60;;;;;;4994060;28;20239;-56
2023/05/25 01:16:57;;;;;;;9.25;5.90;;;14.00;41.50;;;;;;4993785;28;20257;-55
2023/05/25 01:19:24;;;;;;;13.90;5.47;;;14.00;41.40;;;;;;4993656;28;20147;-55
2023/05/25 01:22:08;;;;;;;9.93;6.50;;;14.00;41.30;;;;;;4993852;28;20172;-55
2023/05/25 01:24:48;;;;;;;9.77;6.03;;;14.00;41.20;;;;;;4993870;28;20229;-55
2023/05/25 01:27:37;;;;;;;7.45;5.70;;;14.00;41.20;;;;;;4993798;28;20266;-55
2023/05/25 01:30:07;;;;;;;10.57;7.50;;;13.90;41.40;;;;;;4993477;28;20180;-55
2023/05/25 01:32:34;;;;;;;7.30;6.55;;;13.80;41.40;;;;;;4993717;28;20649;-55
2023/05/25 01:35:00;;;;;;;7.28;6.57;;;13.80;41.60;;;;;;4960345;28;20561;-56
2023/05/25 01:37:26;;;;;;;7.95;6.40;;;13.80;41.70;;;;;;4993562;28;20179;-55
2023/05/25 01:39:52;;;;;;;7.97;6.82;;;13.80;41.70;;;;;;4993183;28;20175;-55
2023/05/25 01:42:18;;;;;;;8.47;6.10;;;13.80;41.50;;;;;;4975921;28;20181;-55
2023/05/25 01:44:44;;;;;;;9.10;6.60;;;13.70;41.60;;;;;;4993513;28;20193;-54
2023/05/25 01:47:27;;;;;;;9.63;5.60;;;13.60;41.60;;;;;;4975918;28;20414;-55
2023/05/25 01:50:11;;;;;;;10.07;7.55;;;13.60;41.40;;;;;;4993180;28;20179;-55
2023/05/25 01:52:44;;;;;;;11.35;6.88;;;13.60;41.40;;;;;;4993117;28;20186;-55
2023/05/25 01:55:16;;;;;;;7.05;6.40;;;13.50;41.30;;;;;;4993192;28;20266;-54
2023/05/25 01:57:47;;;;;;;12.35;7.65;;;13.60;41.30;;;;;;4993301;28;20234;-55
2023/05/25 02:00:14;;;;;;;7.53;6.13;;;13.50;41.30;;;;;;4992994;28;20214;-55
2023/05/25 02:02:42;;;;;;;10.32;6.75;;;13.50;41.30;;;;;;4993133;28;20226;-55
2023/05/25 02:05:10;;;;;;;12.35;7.20;;;13.40;41.40;;;;;;4992858;28;20211;-53
2023/05/25 02:07:36;;;;;;;13.52;8.38;;;13.40;41.40;;;;;;4993106;28;20691;-54
2023/05/25 02:10:02;;;;;;;10.57;6.78;;;13.40;41.40;;;;;;4992829;28;20171;-53
2023/05/25 02:12:28;;;;;;;10.40;6.57;;;13.40;41.30;;;;;;4992848;28;20175;-54
2023/05/25 02:14:54;;;;;;;8.80;6.30;;;13.30;41.30;;;;;;4992910;28;20191;-54
2023/05/25 02:17:20;;;;;;;7.37;6.23;;;13.30;41.40;;;;;;4992860;28;20221;-52
2023/05/25 02:19:48;;;;;;;9.47;6.70;;;13.30;41.40;;;;;;4991778;28;20413;-53
2023/05/25 02:22:14;;;;;;;9.40;7.15;;;13.30;41.50;;;;;;4993107;28;20464;-54
2023/05/25 02:24:39;;;;;;;8.60;6.20;;;13.30;41.20;;;;;;4992853;28;20184;-54
2023/05/25 02:27:06;;;;;;;8.97;6.77;;;13.30;41.30;;;;;;4992701;28;20253;-53
2023/05/25 02:29:32;;;;;;;11.07;8.27;;;13.30;41.30;;;;;;4992426;28;20588;-56
2023/05/25 02:31:58;;;;;;;12.30;7.43;;;13.30;41.30;;;;;;4992864;28;20216;-56
2023/05/25 02:34:23;;;;;;;9.13;7.25;;;13.20;41.30;;;;;;4992590;28;20216;-53
2023/05/25 02:36:50;;;;;;;10.40;7.70;;;13.10;41.30;;;;;;4992785;28;20677;-53
2023/05/25 02:39:15;;;;;;;9.15;8.15;;;13.20;41.50;;;;;;4992377;28;20183;-55
2023/05/25 02:41:41;;;;;;;8.30;7.43;;;13.20;41.30;;;;;;4992577;28;20260;-55
2023/05/25 02:44:07;;;;;;;9.90;6.50;;;13.10;41.20;;;;;;4992562;28;20951;-52
2023/05/25 02:46:33;;;;;;;8.87;7.20;;;13.10;41.20;;;;;;4992414;28;20202;-53
2023/05/25 02:48:59;;;;;;;13.30;7.43;;;13.10;41.10;;;;;;4992748;28;20484;-55
2023/05/25 02:51:26;;;;;;;10.35;6.68;;;13.10;41.20;;;;;;4992268;28;20419;-52
2023/05/25 02:53:52;;;;;;;9.20;7.55;;;13.10;41.30;;;;;;4992401;28;20211;-56
2023/05/25 02:56:18;;;;;;;10.40;6.87;;;13.10;41.00;;;;;;4992371;28;20237;-55
2023/05/25 02:58:43;;;;;;;9.50;7.63;;;13.10;41.20;;;;;;4992560;28;20210;-52
2023/05/25 03:01:09;;;;;;;12.67;6.93;;;13.00;41.20;;;;;;4992234;28;20215;-55
2023/05/25 03:03:38;;;;;;;11.50;7.43;;;13.00;41.90;;;;;;4992429;28;20521;-55
2023/05/25 03:06:04;;;;;;;9.13;6.60;;;13.00;41.10;;;;;;4992364;28;20246;-52
2023/05/25 03:08:30;;;;;;;12.13;7.37;;;13.00;41.10;;;;;;4992461;28;20255;-54
2023/05/25 03:10:56;;;;;;;11.67;7.40;;;13.00;41.00;;;;;;4992102;28;20175;-53
2023/05/25 03:13:21;;;;;;;12.73;8.90;;;12.90;41.00;;;;;;4992406;28;20485;-56
2023/05/25 03:15:47;;;;;;;9.50;7.07;;;12.90;41.20;;;;;;4992252;28;20512;-52
2023/05/25 03:18:13;;;;;;;9.20;6.77;;;12.90;41.40;;;;;;4992398;28;20760;-56
2023/05/25 03:20:40;;;;;;;10.20;6.83;;;12.80;41.40;;;;;;4992384;28;20171;-54
2023/05/25 03:23:06;;;;;;;12.98;7.90;;;12.80;41.50;;;;;;4992626;28;20202;-52
2023/05/25 03:25:31;;;;;;;6.93;5.50;;;12.70;41.40;;;;;;4992371;28;20203;-52
2023/05/25 03:27:57;;;;;;;8.50;6.80;;;12.80;41.50;;;;;;4992349;28;20185;-54
2023/05/25 03:30:23;;;;;;;12.90;8.30;;;12.80;41.70;;;;;;4991940;28;20179;-54
2023/05/25 03:32:49;;;;;;;11.23;7.30;;;12.80;41.70;;;;;;4995875;28;20186;-53
2023/05/25 03:35:15;;;;;;;8.95;5.70;;;12.70;41.80;;;;;;4995750;28;20191;-53
2023/05/25 03:37:41;;;;;;;9.77;6.73;;;12.70;41.80;;;;;;4995957;28;20182;-53
2023/05/25 03:40:08;;;;;;;12.30;7.60;;;12.80;41.70;;;;;;4995538;28;20983;-56
2023/05/25 03:42:34;;;;;;;7.47;6.38;;;12.80;41.80;;;;;;4978182;28;20421;-52
2023/05/25 03:45:00;;;;;;;7.70;5.22;;;12.90;42.00;;;;;;4995503;28;20199;-52
2023/05/25 03:47:26;;;;;;;8.80;6.90;;;12.90;42.10;;;;;;4995832;28;20174;-55
2023/05/25 03:49:52;;;;;;;8.03;6.53;;;12.90;42.20;;;;;;4995370;28;20186;-55
2023/05/25 03:52:17;;;;;;;9.27;6.63;;;12.90;42.10;;;;;;4995908;28;20226;-53
2023/05/25 03:54:43;;;;;;;11.20;8.10;;;12.90;42.10;;;;;;4995353;28;20690;-53
2023/05/25 03:57:09;;;;;;;8.43;7.40;;;12.90;42.10;;;;;;4995503;28;20846;-56
2023/05/25 03:59:35;;;;;;;9.33;6.70;;;13.00;42.10;;;;;;4995079;28;20167;-53
2023/05/25 04:02:00;;;;;;;9.73;6.00;;;13.00;42.40;;;;;;4995593;28;20254;-53
2023/05/25 04:04:27;;;;;;;15.07;7.17;;;13.10;42.60;;;;;;4995192;28;20645;-55
2023/05/25 04:06:53;;;;;;;10.63;7.40;;;13.10;42.60;;;;;;4995354;28;20210;-55
2023/05/25 04:09:19;;;;;;;9.70;7.45;;;13.20;42.60;;;;;;4977608;28;20210;-52
2023/05/25 04:11:45;;;;;;;7.57;6.72;;;13.20;42.90;;;;;;4995554;28;20199;-52
2023/05/25 04:14:11;;;;;;;9.93;7.25;;;13.30;43.00;;;;;;4995238;28;20270;-52
2023/05/25 04:16:39;;;;;;;13.18;6.82;;;13.40;42.90;;;;;;4995026;28;20187;-52
2023/05/25 04:19:06;;;;;;;11.85;8.63;;;13.50;43.00;;;;;;4995062;28;20186;-56
2023/05/25 04:21:32;;;;;;;13.18;8.18;;;13.50;43.00;;;;;;4994975;28;20246;-53
2023/05/25 04:23:57;;;;;;;12.83;8.97;;;13.60;42.90;;;;;;4994823;28;20258;-56
2023/05/25 04:26:25;;;;;;;11.60;7.90;;;13.70;42.90;;;;;;4994712;28;20438;-55
2023/05/25 04:28:54;;;;;;;11.65;6.90;;;13.80;42.80;;;;;;4994710;28;20179;-53
2023/05/25 04:31:20;;;;;;;10.60;7.50;;;13.80;42.70;;;;;;4994787;28;20179;-55
2023/05/25 04:33:46;;;;;;;11.90;7.32;;;13.90;42.80;;;;;;4994615;28;20246;-53
2023/05/25 04:36:15;;;;;;;12.80;8.17;;;14.00;42.80;;;;;;4994572;28;20218;-56
2023/05/25 04:38:41;;;;;;;10.13;8.55;;;14.10;42.80;;;;;;4977035;28;20949;-54
2023/05/25 04:41:07;;;;;;;8.98;7.90;;;14.10;42.80;;;;;;4994254;28;20531;-53
2023/05/25 04:43:33;;;;;;;11.73;8.10;;;13.40;42.20;;;;;;4993757;28;20202;-54
2023/05/25 04:45:59;;;;;;;11.63;7.23;;;14.30;42.60;;;;;;4994334;28;20445;-54
2023/05/25 04:48:27;;;;;;;8.70;7.70;;;14.30;42.50;;;;;;4994443;28;20178;-54
2023/05/25 04:50:54;;;;;;;10.55;8.02;;;14.40;42.30;;;;;;4994334;28;20187;-56
2023/05/25 04:53:23;;;;;;;15.98;9.27;;;14.40;42.30;;;;;;4976732;28;20203;-54
2023/05/25 04:55:50;;;;;;;10.95;7.40;;;14.40;42.60;;;;;;4994173;28;20199;-54
2023/05/25 04:58:16;;;;;;;13.23;8.45;;;14.50;42.90;;;;;;4994400;28;20186;-56
2023/05/25 05:00:41;;;;;;;9.57;7.43;;;14.60;42.70;;;;;;4994281;28;20179;-54
2023/05/25 05:03:07;;;;;;;12.30;8.43;;;14.70;42.80;;;;;;4994153;28;20434;-54
2023/05/25 05:05:35;;;;;;;16.17;9.60;;;14.80;42.60;;;;;;4994003;28;20746;-57
2023/05/25 05:08:02;;;;;;;11.23;7.90;;;14.90;42.40;;;;;;4993987;28;20171;-57
2023/05/25 05:10:28;;;;;;;20.45;9.68;;;15.00;42.20;;;;;;4993703;28;20707;-54
2023/05/25 05:12:54;;;;;;;13.43;8.83;;;15.00;42.00;;;;;;4994173;28;20214;-53
2023/05/25 05:15:20;;;;;;;15.00;8.23;;;15.00;42.00;;;;;;4993861;28;20430;-56
2023/05/25 05:17:45;;;;;;;10.50;7.73;;;15.10;42.10;;;;;;4994100;28;20592;-53
2023/05/25 05:20:12;;;;;;;13.40;9.87;;;15.20;42.10;;;;;;4993963;28;20175;-54
2023/05/25 05:22:37;;;;;;;13.32;8.40;;;15.20;42.00;;;;;;4993771;28;20669;-55
2023/05/25 05:25:04;;;;;;;10.27;8.47;;;15.30;41.70;;;;;;4993526;28;20203;-55
2023/05/25 05:27:29;;;;;;;11.98;7.65;;;15.30;41.90;;;;;;4976254;28;20483;-54
2023/05/25 05:29:55;;;;;;;15.93;7.50;;;15.40;41.80;;;;;;4993647;28;20675;-57
2023/05/25 05:32:21;;;;;;;15.83;8.30;;;15.50;41.50;;;;;;4993511;28;20167;-55
2023/05/25 05:34:47;;;;;;;9.40;7.90;;;15.50;41.30;;;;;;4993616;28;20195;-55
2023/05/25 05:37:13;;;;;;;14.63;8.70;;;15.60;41.70;;;;;;4993434;28;20195;-57
2023/05/25 05:39:38;;;;;;;16.00;8.10;;;15.60;40.50;;;;;;4975695;28;20254;-54
2023/05/25 05:42:05;;;;;;;9.50;8.20;;;15.60;40.20;;;;;;4976159;28;20171;-57
2023/05/25 05:44:31;;;;;;;10.68;8.13;;;15.70;40.70;;;;;;4993439;28;20175;-54
2023/05/25 05:47:00;;;;;;;12.23;9.67;;;15.80;40.80;;;;;;4993261;28;20214;-54
2023/05/25 05:49:27;;;;;;;13.73;7.93;;;16.00;40.60;;;;;;4993121;28;20175;-56
2023/05/25 05:51:53;;;;;;;9.85;7.40;;;16.10;40.10;;;;;;4993237;28;20175;-57
2023/05/25 05:54:19;;;;;;;14.07;9.17;;;16.20;39.50;;;;;;4992842;28;20273;-55
2023/05/25 05:56:44;;;;;;;11.07;7.80;;;16.30;39.80;;;;;;4993078;28;20438;-55
2023/05/25 05:59:10;;;;;;;13.23;8.80;;;16.40;39.90;;;;;;4993122;28;20415;-57
2023/05/25 06:01:37;;;;;;;13.98;8.65;;;16.60;39.70;;;;;;4993263;28;20402;-56
2023/05/25 06:04:05;;;;;;;15.23;9.52;;;16.70;39.90;;;;;;4993044;28;20231;-54
2023/05/25 06:06:33;;;;;;;12.68;8.10;;;16.90;39.50;;;;;;4992637;28;20281;-57
2023/05/25 06:09:02;;;;;;;13.05;9.40;;;16.90;38.20;;;;;;4992867;28;20218;-56
2023/05/25 06:11:28;;;;;;;12.57;9.98;;;16.90;38.50;;;;;;4992693;28;20549;-53
2023/05/25 06:13:54;;;;;;;12.02;8.68;;;17.00;38.60;;;;;;4992668;28;20210;-53
2023/05/25 06:16:19;;;;;;;12.40;8.60;;;17.10;38.10;;;;;;4992541;28;20197;-56
2023/05/25 06:18:45;;;;;;;18.63;8.77;;;17.00;37.30;;;;;;4992809;28;20409;-57
2023/05/25 06:21:11;;;;;;;14.20;8.57;;;17.00;38.00;;;;;;4992418;28;20540;-54
2023/05/25 06:23:37;;;;;;;13.90;8.73;;;17.00;38.30;;;;;;4992714;28;20187;-55
2023/05/25 06:26:05;;;;;;;10.43;8.10;;;17.10;38.60;;;;;;4992739;28;20191;-55
2023/05/25 06:28:31;;;;;;;13.80;8.80;;;17.30;38.50;;;;;;4992915;28;20171;-54
2023/05/25 06:30:57;;;;;;;12.87;8.60;;;17.40;38.20;;;;;;4992441;28;20514;-57
2023/05/25 06:33:23;;;;;;;10.13;8.50;;;17.60;38.60;;;;;;4992604;28;20458;-56
2023/05/25 06:35:49;;;;;;;14.10;8.60;;;17.70;37.80;;;;;;4992335;28;20534;-54
2023/05/25 06:38:15;;;;;;;14.23;8.07;;;17.90;37.90;;;;;;4992523;28;20174;-53
2023/05/25 06:40:41;;;;;;;9.70;8.30;;;18.00;37.70;;;;;;4992477;28;20556;-56
2023/05/25 06:43:06;;;;;;;11.97;7.60;;;18.20;36.80;;;;;;4992472;28;20642;-53
2023/05/25 06:45:32;;;;;;;14.67;8.47;;;18.30;37.20;;;;;;4992443;28;20194;-55
2023/05/25 06:47:58;;;;;;;12.57;7.80;;;18.40;36.90;;;;;;4992751;28;20178;-57
2023/05/25 06:50:24;;;;;;;12.37;7.77;;;18.50;37.10;;;;;;4992163;28;20182;-57
2023/05/25 06:52:50;;;;;;;9.83;6.23;;;18.70;36.80;;;;;;4992645;28;20653;-54
2023/05/25 06:55:16;;;;;;;7.82;6.35;;;18.90;36.90;;;;;;4992496;28;20191;-56
2023/05/25 06:57:42;;;;;;;10.30;7.13;;;19.10;36.70;;;;;;4992486;28;20645;-56
2023/05/25 07:00:11;;;;;;;11.38;7.35;;;19.20;36.70;;;;;;4992116;28;20418;-54
2023/05/25 07:02:38;;;;;;;11.98;6.55;;;19.30;36.40;;;;;;4992446;28;20175;-53
2023/05/25 07:05:04;;;;;;;10.73;5.85;;;19.40;36.10;;;;;;4992029;28;20214;-54
2023/05/25 07:07:31;;;;;;;13.82;6.95;;;19.60;36.50;;;;;;4978308;28;20167;-56
2023/05/25 07:09:57;;;;;;;12.65;6.60;;;19.80;36.50;;;;;;4996044;28;20178;-53
2023/05/25 07:12:22;;;;;;;11.43;6.50;;;19.90;36.40;;;;;;4996568;28;20175;-56
2023/05/25 07:14:48;;;;;;;9.60;7.13;;;20.10;36.60;;;;;;4996027;28;20458;-56
2023/05/25 07:17:15;;;;;;;9.30;6.90;;;20.30;36.60;;;;;;4996100;28;20194;-52
2023/05/25 07:19:42;;;;;;;12.30;6.60;;;20.40;35.30;;;;;;4996010;28;20246;-53
2023/05/25 07:22:11;;;;;;;13.43;6.60;;;20.40;35.40;;;;;;4996016;28;20210;-56
2023/05/25 07:24:37;;;;;;;9.73;6.03;;;20.50;35.20;;;;;;4995842;28;20183;-55
2023/05/25 07:27:03;;;;;;;9.57;6.30;;;20.60;35.70;;;;;;4995819;28;20202;-54
2023/05/25 07:29:29;;;;;;;9.35;5.80;;;20.60;34.60;;;;;;4995693;28;20429;-57
2023/05/25 07:31:55;;;;;;;12.43;6.60;;;20.60;35.00;;;;;;4996256;28;20175;-55
2023/05/25 07:34:21;;;;;;;7.10;5.27;;;20.70;34.80;;;;;;4995558;28;20457;-53
2023/05/25 07:36:47;;;;;;;10.70;4.80;;;20.80;34.70;;;;;;4978190;28;20330;-56
2023/05/25 07:39:12;;;;;;;7.03;5.90;;;20.70;33.50;;;;;;4995509;28;20214;-54
2023/05/25 07:41:38;;;;;;;9.30;6.37;;;20.80;34.40;;;;;;4996003;28;20225;-52
2023/05/25 07:44:04;;;;;;;7.20;5.05;;;20.90;34.80;;;;;;4995670;28;20234;-54
2023/05/25 07:46:36;;;;;;;9.73;5.57;;;21.00;34.50;;;;;;4995403;28;20223;-56
2023/05/25 07:49:03;;;;;;;11.75;6.15;;;21.10;34.00;;;;;;4995741;28;20398;-54
2023/05/25 07:51:31;;;;;;;10.00;6.43;;;21.10;32.30;;;;;;4995457;28;20640;-53
2023/05/25 07:53:57;;;;;;;9.43;5.20;;;21.10;32.70;;;;;;4995323;28;20207;-55
2023/05/25 07:56:24;;;;;;;8.73;5.20;;;21.10;33.60;;;;;;4995352;28;20206;-57
2023/05/25 07:58:50;;;;;;;9.70;6.70;;;21.10;34.50;;;;;;4995284;28;20441;-54
2023/05/25 08:01:16;;;;;;;11.33;6.27;;;21.20;34.10;;;;;;4994993;28;20217;-56
2023/05/25 08:03:42;;;;;;;7.63;5.93;;;21.30;34.00;;;;;;4995440;28;20211;-53
2023/05/25 08:06:08;;;;;;;7.63;5.47;;;21.30;32.90;;;;;;4995025;28;20285;-53
2023/05/25 08:08:35;;;;;;;8.93;5.83;;;21.20;32.20;;;;;;4977917;28;20649;-56
2023/05/25 08:11:01;;;;;;;10.65;5.43;;;21.20;32.50;;;;;;4994898;28;20179;-57
2023/05/25 08:13:27;;;;;;;11.80;6.20;;;21.00;32.20;;;;;;4995032;28;20696;-54
2023/05/25 08:15:52;;;;;;;8.80;4.90;;;21.00;33.70;;;;;;4994811;28;20234;-57
2023/05/25 08:18:18;;;;;;;5.63;4.53;;;21.10;34.10;;;;;;4993549;28;20203;-53
2023/05/25 08:20:45;;;;;;;10.77;4.47;;;21.20;33.60;;;;;;4994698;28;20175;-56
2023/05/25 08:23:10;;;;;;;8.30;5.27;;;21.30;32.50;;;;;;4995184;28;20638;-54
2023/05/25 08:25:36;;;;;;;11.73;5.87;;;21.30;32.10;;;;;;4994798;28;20952;-56
2023/05/25 08:28:02;;;;;;;11.57;5.47;;;21.30;32.20;;;;;;4994830;28;20179;-57
2023/05/25 08:30:29;;;;;;;6.40;4.93;;;21.50;32.30;;;;;;4994501;28;20597;-55
2023/05/25 08:32:55;;;;;;;12.15;5.45;;;21.50;31.80;;;;;;4994581;28;20179;-54
2023/05/25 08:35:20;;;;;;;10.50;5.43;;;21.70;32.00;;;;;;4994531;28;20245;-57
2023/05/25 08:37:46;;;;;;;10.47;5.60;;;21.80;31.20;;;;;;4994951;28;20250;-54
2023/05/25 08:40:15;;;;;;;10.73;5.70;;;21.90;32.60;;;;;;4994315;28;20653;-55
2023/05/25 08:42:44;;;;;;;10.60;5.53;;;22.10;33.20;;;;;;4994610;28;20557;-56
2023/05/25 08:45:10;;;;;;;9.50;5.43;;;22.30;33.20;;;;;;4994319;28;20959;-54
2023/05/25 08:47:41;;;;;;;8.63;5.37;;;22.40;30.40;;;;;;4994402;28;20410;-54
2023/05/25 08:50:11;;;;;;;11.70;6.20;;;22.40;31.80;;;;;;4994019;28;20413;-56
2023/05/25 08:52:39;;;;;;;10.87;4.70;;;22.50;31.80;;;;;;4994337;28;20764;-54
2023/05/25 08:55:07;;;;;;;10.53;5.37;;;22.70;31.10;;;;;;4960968;28;20924;-56
2023/05/25 08:57:42;;;;;;;6.80;5.30;;;22.80;30.10;;;;;;4994000;28;20417;-54
2023/05/25 09:00:12;;;;;;;9.27;6.03;;;22.70;30.00;;;;;;4994191;28;20410;-54
2023/05/25 09:02:40;;;;;;;14.73;6.10;;;22.60;30.40;;;;;;4994187;28;20402;-55
2023/05/25 09:05:07;;;;;;;7.60;5.10;;;22.60;30.70;;;;;;4993933;28;20462;-56
2023/05/25 09:07:34;;;;;;;12.97;5.17;;;22.70;31.40;;;;;;4994030;28;20419;-53
2023/05/25 09:10:01;;;;;;;10.30;5.80;;;22.80;31.00;;;;;;4993694;28;20402;-54
2023/05/25 09:12:29;;;;;;;10.87;5.27;;;22.90;31.60;;;;;;4976710;28;20484;-56
2023/05/25 09:14:56;;;;;;;14.77;5.43;;;22.90;31.70;;;;;;4993753;28;20453;-53
2023/05/25 09:17:22;;;;;;;10.60;4.93;;;22.80;29.60;;;;;;4993854;28;20406;-54
2023/05/25 09:19:48;;;;;;;8.60;5.83;;;22.60;29.90;;;;;;4993729;28;20406;-54
2023/05/25 09:22:14;;;;;;;10.20;4.90;;;22.60;29.20;;;;;;4994010;28;20407;-56
2023/05/25 09:24:42;;;;;;;8.37;5.23;;;22.70;30.90;;;;;;4993553;28;20456;-54
2023/05/25 09:27:11;;;;;;;7.10;4.83;;;22.80;31.30;;;;;;4993656;28;20407;-56
2023/05/25 09:29:37;;;;;;;6.47;5.20;;;23.00;31.40;;;;;;4992866;28;20422;-56
2023/05/25 09:32:05;;;;;;;11.57;5.70;;;23.10;31.20;;;;;;4993592;28;20409;-54
2023/05/25 09:34:34;;;;;;;9.10;4.90;;;23.10;31.60;;;;;;4993519;28;20490;-56
2023/05/25 09:37:09;;;;;;;7.37;5.43;;;23.00;30.80;;;;;;4993368;28;21015;-53
2023/05/25 09:39:35;;;;;;;10.33;5.00;;;23.10;31.80;;;;;;4993646;28;20379;-56
2023/05/25 09:42:01;;;;;;;5.73;4.50;;;23.20;29.00;;;;;;4993512;28;20772;-55
2023/05/25 09:44:27;;;;;;;6.33;5.37;;;23.10;28.40;;;;;;4993360;28;20555;-53
2023/05/25 09:46:53;;;;;;;6.20;4.40;;;23.10;29.90;;;;;;4993201;28;20197;-54
2023/05/25 09:49:20;;;;;;;9.30;4.50;;;23.30;31.80;;;;;;4993004;28;20517;-56
2023/05/25 09:51:47;;;;;;;10.03;5.90;;;23.50;31.50;;;;;;4975855;28;20641;-54
2023/05/25 09:54:13;;;;;;;9.70;5.20;;;23.80;31.20;;;;;;4993103;28;20450;-55
2023/05/25 09:56:40;;;;;;;8.53;5.60;;;24.00;31.50;;;;;;4993121;28;20458;-57
2023/05/25 09:59:05;;;;;;;9.93;5.83;;;24.20;31.50;;;;;;4993013;28;20849;-54
2023/05/25 10:01:32;;;;;;;15.10;6.17;;;24.40;29.70;;;;;;4992928;28;20442;-56
2023/05/25 10:04:00;;;;;;;5.67;4.07;;;24.50;30.10;;;;;;4993030;28;20515;-54
2023/05/25 10:06:27;;;;;;;9.03;6.30;;;24.70;30.30;;;;;;4992708;28;20533;-54
2023/05/25 10:08:55;;;;;;;8.40;5.87;;;24.80;27.90;;;;;;4993233;28;20796;-54
2023/05/25 10:11:22;;;;;;;9.80;5.30;;;24.80;28.30;;;;;;4975435;28;20414;-56
2023/05/25 10:13:50;;;;;;;6.90;4.30;;;24.80;29.80;;;;;;4992799;28;20446;-56
2023/05/25 10:16:17;;;;;;;11.63;5.23;;;24.80;29.90;;;;;;4992744;28;20449;-54
2023/05/25 10:18:50;;;;;;;8.83;5.17;;;24.90;27.70;;;;;;4992761;28;20993;-57
2023/05/25 10:21:18;;;;;;;7.30;4.60;;;24.90;29.00;;;;;;4992702;28;20383;-54
2023/05/25 10:23:49;;;;;;;8.80;4.80;;;24.90;28.70;;;;;;4992747;28;20406;-54
2023/05/25 10:26:20;;;;;;;7.80;4.70;;;24.90;28.40;;;;;;4992552;28;20444;-56
2023/05/25 10:28:50;;;;;;;9.70;4.80;;;24.90;26.40;;;;;;4992800;28;20449;-53
2023/05/25 10:31:17;;;;;;;7.50;4.50;;;24.80;26.50;;;;;;4992375;28;20413;-54
2023/05/25 10:33:45;;;;;;;8.70;4.70;;;24.80;27.80;;;;;;4992753;28;20484;-57
2023/05/25 10:36:15;;;;;;;9.03;4.83;;;24.70;28.30;;;;;;4992559;28;20430;-54
2023/05/25 10:38:43;;;;;;;7.70;6.07;;;24.70;29.00;;;;;;4992848;28;20422;-54
2023/05/25 10:41:10;;;;;;;13.83;5.30;;;24.60;28.40;;;;;;4991662;28;20406;-56
2023/05/25 10:43:37;;;;;;;9.90;5.40;;;24.60;28.80;;;;;;4992835;28;20421;-58
2023/05/25 10:46:05;;;;;;;6.07;4.33;;;24.50;28.50;;;;;;4992277;28;20574;-55
2023/05/25 10:48:38;;;;;;;13.20;5.23;;;24.50;28.40;;;;;;4992742;28;20411;-57
2023/05/25 10:51:05;;;;;;;6.63;4.80;;;24.70;28.30;;;;;;4992389;28;20500;-54
2023/05/25 10:53:31;;;;;;;10.67;5.10;;;24.80;28.80;;;;;;4992411;28;20454;-54
2023/05/25 10:56:02;;;;;;;7.37;4.20;;;25.00;28.50;;;;;;4992302;28;20426;-57
2023/05/25 10:58:30;;;;;;;10.23;5.27;;;25.10;27.80;;;;;;4992306;28;20431;-56
2023/05/25 11:01:15;;;;;;;7.77;5.37;;;25.30;27.90;;;;;;4992370;28;20418;-54
2023/05/25 11:03:44;;;;;;;12.57;4.90;;;25.40;26.20;;;;;;4992405;28;20403;-54
2023/05/25 11:06:14;;;;;;;10.57;4.30;;;25.50;27.40;;;;;;4992109;28;20451;-56
2023/05/25 11:09:00;;;;;;;4.93;3.97;;;25.60;27.30;;;;;;4992131;28;20442;-53
2023/05/25 11:11:41;;;;;;;9.63;4.83;;;25.70;26.10;;;;;;4992286;28;20414;-56
2023/05/25 11:14:31;;;;;;;9.50;3.93;;;25.70;26.10;;;;;;4992132;28;20457;-56
2023/05/25 11:17:17;;;;;;;8.47;4.03;;;25.70;26.20;;;;;;4992110;28;20427;-56
2023/05/25 11:20:01;;;;;;;7.00;4.37;;;25.80;25.80;;;;;;4992161;28;20407;-54
2023/05/25 11:22:34;;;;;;;6.00;4.57;;;25.80;26.50;;;;;;4992220;28;20382;-56
2023/05/25 11:25:02;;;;;;;6.83;4.27;;;25.90;25.90;;;;;;4992172;28;20426;-55
2023/05/25 11:27:31;;;;;;;9.33;4.60;;;26.00;25.70;;;;;;4992034;28;20826;-55
2023/05/25 11:29:58;;;;;;;6.50;4.33;;;26.00;24.30;;;;;;4991901;28;20423;-56
2023/05/25 11:32:26;;;;;;;8.00;4.87;;;26.00;25.80;;;;;;4992294;28;20776;-53
2023/05/25 11:34:52;;;;;;;5.80;4.43;;;26.10;26.80;;;;;;4991918;28;20976;-55
2023/05/25 11:37:20;;;;;;;7.63;4.70;;;26.20;26.30;;;;;;4992280;28;20414;-56
2023/05/25 11:39:50;;;;;;;9.00;5.73;;;26.30;26.20;;;;;;4991792;28;20410;-53
2023/05/25 11:42:18;;;;;;;6.23;4.40;;;26.40;25.60;;;;;;4991938;28;20838;-54
2023/05/25 11:44:44;;;;;;;6.73;4.00;;;26.40;26.20;;;;;;4991924;28;20426;-55
2023/05/25 11:47:17;;;;;;;6.83;4.90;;;26.50;25.50;;;;;;4991984;28;20418;-56
2023/05/25 11:49:45;;;;;;;8.60;4.53;;;26.60;25.40;;;;;;4991778;28;20167;-54
2023/05/25 11:52:13;;;;;;;6.57;4.50;;;26.70;25.70;;;;;;4992925;28;20425;-55
2023/05/25 11:54:40;;;;;;;5.73;4.67;;;26.80;25.30;;;;;;4995166;28;20960;-57
2023/05/25 11:57:30;;;;;;;14.30;4.47;;;26.90;24.90;;;;;;4995343;28;20465;-54
2023/05/25 12:00:00;;;;;;;5.73;3.30;;;26.90;22.70;;;;;;4995056;28;20469;-55
2023/05/25 12:02:26;;;;;;;4.80;3.97;;;26.90;23.50;;;;;;4995279;28;20461;-53
2023/05/25 12:04:58;;;;;;;6.40;4.20;;;27.00;22.80;;;;;;4995082;28;20857;-55
2023/05/25 12:07:28;;;;;;;7.43;4.10;;;27.00;23.40;;;;;;4995424;28;20412;-56
2023/05/25 12:10:11;;;;;;;8.07;3.90;;;27.10;24.50;;;;;;4995074;28;20457;-53
2023/05/25 12:12:49;;;;;;;5.57;4.20;;;27.10;22.00;;;;;;4995134;28;20418;-55
2023/05/25 12:15:21;;;;;;;5.00;3.60;;;27.10;24.80;;;;;;4994948;28;20489;-55
2023/05/25 12:17:47;;;;;;;5.13;3.90;;;27.20;25.10;;;;;;4995306;28;20395;-54
2023/05/25 12:20:15;;;;;;;7.90;4.73;;;27.20;25.10;;;;;;4995037;28;20406;-54
2023/05/25 12:22:42;;;;;;;6.27;4.30;;;27.30;24.30;;;;;;4994956;28;20410;-55
2023/05/25 12:25:09;;;;;;;4.80;3.60;;;27.30;23.80;;;;;;4995036;28;20442;-57
2023/05/25 12:27:36;;;;;;;8.30;5.07;;;27.40;23.30;;;;;;4994718;28;20510;-55
2023/05/25 12:30:04;;;;;;;8.20;3.60;;;27.50;24.10;;;;;;4994500;28;20406;-53
2023/05/25 12:32:29;;;;;;;4.60;3.50;;;27.60;21.10;;;;;;4994896;28;20415;-56
2023/05/25 12:35:05;;;;;;;6.30;3.70;;;27.50;21.80;;;;;;4994579;28;20464;-53
2023/05/25 12:37:31;;;;;;;4.40;3.90;;;27.60;22.90;;;;;;4994702;28;20984;-56
2023/05/25 12:39:57;;;;;;;10.40;3.97;;;27.60;23.20;;;;;;4994641;28;20410;-53
2023/05/25 12:42:28;;;;;;;6.03;3.53;;;27.60;23.30;;;;;;4994467;28;20406;-53
2023/05/25 12:45:00;;;;;;;6.47;3.33;;;27.80;23.90;;;;;;4994734;28;20769;-53